Time;durP1;ratioP1;P1;durP2;ratioP2;P2;SDS_P1;SDS_P2;PMS_P1;PMS_P2;Temp;Humidity;BMP_temperature;BMP_pressure;BME280_temperature;BME280_humidity;BME280_pressure;Samples;Min_cycle;Max_cycle;Signal;HPM_P1;HPM_P2
2024/01/01 00:00:21;;;;;;;11.27;2.30;;;6.40;99.90;;;;;;5122631;27;20035;-79
2024/01/01 00:02:47;;;;;;;6.22;2.20;;;6.30;99.90;;;;;;5122971;27;20366;-78
2024/01/01 00:05:13;;;;;;;8.90;3.00;;;6.30;99.90;;;;;;5124901;27;20020;-78
2024/01/01 00:07:39;;;;;;;10.48;3.13;;;6.30;99.90;;;;;;5125153;27;20011;-78
2024/01/01 00:10:05;;;;;;;18.83;8.38;;;6.30;99.90;;;;;;5124340;27;20022;-79
2024/01/01 00:12:33;;;;;;;19.23;10.55;;;6.30;99.90;;;;;;5105142;27;20425;-79
2024/01/01 00:14:59;;;;;;;25.17;14.68;;;6.20;99.90;;;;;;5128530;27;20011;-79
2024/01/01 00:17:25;;;;;;;24.73;14.55;;;6.20;99.90;;;;;;5135501;27;20030;-80
2024/01/01 00:19:51;;;;;;;17.20;9.50;;;6.20;99.90;;;;;;5137075;27;20304;-79
2024/01/01 00:22:17;;;;;;;19.77;10.77;;;6.20;99.90;;;;;;5136313;27;20451;-79
2024/01/01 00:24:43;;;;;;;12.02;5.40;;;6.20;99.90;;;;;;5134770;27;20023;-79
2024/01/01 00:27:08;;;;;;;9.88;3.53;;;6.10;99.90;;;;;;5134902;27;20071;-78
2024/01/01 00:29:34;;;;;;;10.57;3.72;;;6.10;99.90;;;;;;5134028;27;20450;-79
2024/01/01 00:32:00;;;;;;;9.60;3.22;;;6.10;99.90;;;;;;5133737;27;20019;-78
2024/01/01 00:34:25;;;;;;;15.65;3.67;;;6.10;99.90;;;;;;5133524;27;20055;-80
2024/01/01 00:36:51;;;;;;;8.13;2.78;;;6.10;99.90;;;;;;5133804;27;20067;-79
2024/01/01 00:39:17;;;;;;;16.48;2.72;;;6.00;99.90;;;;;;5133974;27;20019;-79
2024/01/01 00:41:46;;;;;;;10.73;2.15;;;6.10;99.90;;;;;;5132715;27;20034;-79
2024/01/01 00:44:11;;;;;;;8.98;2.38;;;6.10;99.90;;;;;;5133531;27;20122;-78
2024/01/01 00:46:37;;;;;;;6.93;2.47;;;6.00;99.90;;;;;;5132676;27;20198;-79
2024/01/01 00:49:03;;;;;;;9.68;2.05;;;6.00;99.90;;;;;;5133162;27;20027;-78
2024/01/01 00:51:29;;;;;;;8.80;2.22;;;6.00;99.90;;;;;;5132725;27;20128;-79
2024/01/01 00:53:54;;;;;;;10.82;2.28;;;6.00;99.90;;;;;;5133721;27;20078;-78
2024/01/01 00:56:20;;;;;;;14.35;2.60;;;6.00;99.90;;;;;;5097932;27;20428;-79
2024/01/01 00:58:46;;;;;;;9.70;2.35;;;6.00;99.90;;;;;;5133484;27;20024;-79
2024/01/01 01:01:11;;;;;;;8.90;2.22;;;6.00;99.90;;;;;;5133248;27;20042;-79
2024/01/01 01:03:37;;;;;;;6.88;1.67;;;5.90;99.90;;;;;;5132778;27;20022;-79
2024/01/01 01:06:05;;;;;;;5.75;1.90;;;6.00;99.90;;;;;;5115167;27;20030;-79
2024/01/01 01:08:31;;;;;;;5.70;1.85;;;6.00;99.90;;;;;;5133333;27;20023;-79
2024/01/01 01:10:56;;;;;;;9.85;1.77;;;6.00;99.90;;;;;;5115030;27;20031;-78
2024/01/01 01:13:22;;;;;;;6.13;1.70;;;6.00;99.90;;;;;;5133207;27;20094;-78
2024/01/01 01:15:49;;;;;;;6.35;1.70;;;6.00;99.90;;;;;;5132763;27;20031;-79
2024/01/01 01:18:15;;;;;;;10.70;2.05;;;5.90;99.90;;;;;;5114228;27;20019;-79
2024/01/01 01:20:41;;;;;;;6.85;1.40;;;5.90;99.90;;;;;;5131761;27;20023;-79
2024/01/01 01:23:06;;;;;;;9.82;1.40;;;5.80;99.90;;;;;;5132762;27;20416;-79
2024/01/01 01:25:32;;;;;;;7.13;1.58;;;5.80;99.90;;;;;;5132720;27;20106;-80
2024/01/01 01:27:59;;;;;;;4.85;1.35;;;5.80;99.90;;;;;;5132112;27;20015;-79
2024/01/01 01:30:24;;;;;;;6.03;1.50;;;5.80;99.90;;;;;;5132000;27;20122;-79
2024/01/01 01:32:50;;;;;;;5.88;1.33;;;5.70;99.90;;;;;;5131545;27;20507;-79
2024/01/01 01:35:16;;;;;;;7.90;1.90;;;5.70;99.90;;;;;;5132212;27;20054;-79
2024/01/01 01:37:43;;;;;;;7.35;1.77;;;5.70;99.90;;;;;;5130961;28;20019;-79
2024/01/01 01:40:09;;;;;;;2.40;1.08;;;5.70;99.90;;;;;;5131735;27;20534;-79
2024/01/01 01:42:36;;;;;;;4.78;1.40;;;5.70;99.90;;;;;;5113098;28;20030;-79
2024/01/01 01:45:02;;;;;;;2.30;1.20;;;5.60;99.90;;;;;;5113613;28;20106;-78
2024/01/01 01:47:28;;;;;;;3.10;1.15;;;5.60;99.90;;;;;;5131905;28;20019;-80
2024/01/01 01:49:55;;;;;;;3.55;1.08;;;5.70;99.90;;;;;;5131817;28;20019;-78
2024/01/01 01:52:21;;;;;;;3.50;1.08;;;5.70;99.90;;;;;;5113422;28;20022;-78
2024/01/01 01:54:50;;;;;;;7.97;1.45;;;5.60;99.90;;;;;;5131401;28;20062;-79
2024/01/01 01:57:16;;;;;;;5.15;1.52;;;5.60;99.90;;;;;;5131496;28;20030;-79
2024/01/01 01:59:45;;;;;;;3.42;1.75;;;5.60;99.90;;;;;;5133179;27;20102;-78
2024/01/01 02:02:11;;;;;;;11.40;2.13;;;5.60;99.90;;;;;;5136027;27;20031;-77
2024/01/01 02:04:37;;;;;;;6.43;1.73;;;5.50;99.90;;;;;;5135370;27;20027;-78
2024/01/01 02:07:03;;;;;;;7.95;2.28;;;5.50;99.90;;;;;;5117347;27;20019;-78
2024/01/01 02:09:30;;;;;;;4.78;1.40;;;5.50;99.90;;;;;;5116941;27;20015;-78
2024/01/01 02:11:56;;;;;;;5.07;1.75;;;5.50;99.90;;;;;;5135810;27;20448;-78
2024/01/01 02:14:23;;;;;;;5.03;1.10;;;5.50;99.90;;;;;;5136406;27;20094;-77
2024/01/01 02:16:50;;;;;;;3.83;1.42;;;5.50;99.90;;;;;;5117506;27;20174;-78
2024/01/01 02:19:20;;;;;;;6.63;1.38;;;5.40;99.90;;;;;;5135928;27;20122;-78
2024/01/01 02:21:48;;;;;;;4.05;1.35;;;5.40;99.90;;;;;;5116896;27;20122;-78
2024/01/01 02:24:15;;;;;;;2.50;0.95;;;5.40;99.90;;;;;;5136668;27;20076;-78
2024/01/01 02:26:45;;;;;;;3.20;1.35;;;5.50;99.90;;;;;;5135280;27;20019;-78
2024/01/01 02:29:12;;;;;;;5.75;1.92;;;5.40;99.90;;;;;;5136114;27;20023;-78
2024/01/01 02:31:38;;;;;;;3.03;1.13;;;5.40;99.90;;;;;;5135384;27;20448;-77
2024/01/01 02:34:04;;;;;;;7.25;1.77;;;5.40;99.90;;;;;;5135788;27;20019;-78
2024/01/01 02:36:35;;;;;;;5.25;1.30;;;5.40;99.90;;;;;;5135872;27;20345;-77
2024/01/01 02:39:01;;;;;;;3.72;1.10;;;5.40;99.90;;;;;;5135994;27;20023;-77
2024/01/01 02:41:26;;;;;;;2.83;1.15;;;5.40;99.90;;;;;;5135403;27;20076;-78
2024/01/01 02:43:52;;;;;;;5.80;1.02;;;5.40;99.90;;;;;;5116304;27;20027;-78
2024/01/01 02:46:18;;;;;;;3.13;1.05;;;5.40;99.90;;;;;;5135401;27;20075;-78
2024/01/01 02:48:43;;;;;;;5.05;1.05;;;5.40;99.90;;;;;;5134595;27;20055;-78
2024/01/01 02:51:09;;;;;;;2.70;1.20;;;5.40;99.90;;;;;;5135854;27;20057;-78
2024/01/01 02:53:35;;;;;;;2.95;0.75;;;5.40;99.90;;;;;;5133740;27;20114;-79
2024/01/01 02:56:00;;;;;;;5.43;0.82;;;5.30;99.90;;;;;;5115176;28;20015;-78
2024/01/01 02:58:27;;;;;;;2.75;0.80;;;5.30;99.90;;;;;;5133492;28;20027;-77
2024/01/01 03:00:52;;;;;;;3.80;0.93;;;5.30;99.90;;;;;;5132863;28;20051;-78
2024/01/01 03:03:20;;;;;;;5.03;0.80;;;5.30;99.90;;;;;;5133006;28;20062;-78
2024/01/01 03:05:46;;;;;;;6.85;1.08;;;5.30;99.90;;;;;;5132617;28;20015;-78
2024/01/01 03:08:12;;;;;;;3.03;0.80;;;5.30;99.90;;;;;;5133218;28;20364;-78
2024/01/01 03:10:37;;;;;;;4.15;1.10;;;5.30;99.90;;;;;;5132377;27;20046;-78
2024/01/01 03:13:03;;;;;;;4.20;1.05;;;5.20;99.90;;;;;;5132941;28;20015;-78
2024/01/01 03:15:29;;;;;;;5.80;1.42;;;5.30;99.90;;;;;;5133374;28;20022;-78
2024/01/01 03:17:55;;;;;;;4.93;1.15;;;5.20;99.90;;;;;;5132338;28;20141;-78
2024/01/01 03:20:23;;;;;;;6.90;1.73;;;5.30;99.90;;;;;;5133219;28;20333;-78
2024/01/01 03:22:48;;;;;;;6.40;1.67;;;5.20;99.90;;;;;;5132279;28;20409;-78
2024/01/01 03:25:15;;;;;;;5.72;1.20;;;5.20;99.90;;;;;;5114768;28;20456;-77
2024/01/01 03:27:40;;;;;;;7.13;1.35;;;5.30;99.90;;;;;;5132399;28;20023;-78
2024/01/01 03:30:08;;;;;;;7.13;1.55;;;5.20;99.90;;;;;;5132906;28;20023;-78
2024/01/01 03:32:37;;;;;;;6.53;1.48;;;5.20;99.90;;;;;;5132629;28;20031;-78
2024/01/01 03:35:04;;;;;;;7.93;1.92;;;5.20;99.90;;;;;;5115257;28;20034;-78
2024/01/01 03:37:30;;;;;;;8.13;1.48;;;5.20;99.90;;;;;;5133062;28;20469;-76
2024/01/01 03:39:56;;;;;;;8.32;1.58;;;5.20;99.90;;;;;;5132295;28;20109;-78
2024/01/01 03:42:21;;;;;;;10.70;2.22;;;5.30;99.90;;;;;;5132768;28;20106;-77
2024/01/01 03:44:47;;;;;;;15.50;2.50;;;5.30;99.90;;;;;;5132101;28;20064;-77
2024/01/01 03:47:13;;;;;;;13.88;2.40;;;5.40;99.90;;;;;;5133130;28;20046;-77
2024/01/01 03:49:40;;;;;;;13.68;2.05;;;5.40;99.90;;;;;;5132256;28;20105;-78
2024/01/01 03:52:06;;;;;;;11.57;2.13;;;5.40;99.90;;;;;;5132985;28;20057;-77
2024/01/01 03:54:32;;;;;;;9.40;2.15;;;5.40;99.90;;;;;;5090843;27;1185624;-77
2024/01/01 03:56:58;;;;;;;12.90;2.05;;;5.40;99.90;;;;;;5133919;27;20035;-77
2024/01/01 03:59:24;;;;;;;49.45;21.58;;;5.40;99.90;;;;;;5115697;27;20020;-77
2024/01/01 04:01:49;;;;;;;44.80;18.42;;;5.50;99.90;;;;;;5133622;27;20081;-77
2024/01/01 04:04:15;;;;;;;21.05;4.95;;;5.50;99.90;;;;;;5134040;27;20046;-77
2024/01/01 04:06:41;;;;;;;10.52;2.92;;;5.50;99.90;;;;;;5133050;27;20026;-78
2024/01/01 04:09:06;;;;;;;16.55;2.63;;;5.50;99.90;;;;;;5133310;27;20023;-78
2024/01/01 04:11:32;;;;;;;14.68;2.22;;;5.50;99.90;;;;;;5133367;27;20470;-77
2024/01/01 04:14:00;;;;;;;11.55;2.15;;;5.60;99.90;;;;;;5132655;27;20768;-77
2024/01/01 04:16:25;;;;;;;10.43;2.35;;;5.60;99.90;;;;;;5133572;27;20023;-77
2024/01/01 04:18:51;;;;;;;13.70;2.17;;;5.50;99.90;;;;;;5132650;27;20011;-77
2024/01/01 04:21:17;;;;;;;13.68;2.10;;;5.60;99.90;;;;;;5132447;27;20410;-78
2024/01/01 04:23:42;;;;;;;15.73;2.13;;;5.50;99.90;;;;;;5131982;27;20023;-78
2024/01/01 04:26:08;;;;;;;11.60;1.88;;;5.50;99.90;;;;;;5132886;27;20396;-78
2024/01/01 04:28:34;;;;;;;13.82;2.58;;;5.40;99.90;;;;;;5132832;27;20019;-78
2024/01/01 04:31:00;;;;;;;10.18;2.33;;;5.40;99.90;;;;;;5113884;27;20425;-78
2024/01/01 04:33:26;;;;;;;11.00;2.47;;;5.40;99.90;;;;;;5132819;27;20102;-78
2024/01/01 04:35:52;;;;;;;15.00;2.83;;;5.30;99.90;;;;;;5131899;27;20119;-77
2024/01/01 04:38:17;;;;;;;13.05;2.20;;;5.30;99.90;;;;;;5114225;27;20029;-78
2024/01/01 04:40:43;;;;;;;12.93;2.13;;;5.30;99.90;;;;;;5131756;27;20122;-78
2024/01/01 04:43:09;;;;;;;13.60;2.35;;;5.30;99.90;;;;;;5132728;27;20436;-78
2024/01/01 04:45:37;;;;;;;15.80;2.25;;;5.30;99.90;;;;;;5132533;27;20023;-78
2024/01/01 04:48:03;;;;;;;15.07;2.25;;;5.20;99.90;;;;;;5132009;27;20027;-78
2024/01/01 04:50:31;;;;;;;13.73;1.98;;;5.20;99.90;;;;;;5132489;27;20122;-78
2024/01/01 04:52:57;;;;;;;8.23;1.70;;;5.20;99.90;;;;;;5113305;27;20103;-78
2024/01/01 04:55:22;;;;;;;10.20;1.80;;;5.20;99.90;;;;;;5132382;27;20519;-78
2024/01/01 04:57:48;;;;;;;11.32;1.70;;;5.10;99.90;;;;;;5132291;27;20022;-78
2024/01/01 05:00:14;;;;;;;7.05;1.48;;;5.10;99.90;;;;;;5132106;27;20388;-78
2024/01/01 05:02:40;;;;;;;9.88;1.65;;;5.10;99.90;;;;;;5132038;27;20024;-78
2024/01/01 05:05:08;;;;;;;18.73;2.38;;;5.00;99.90;;;;;;5113537;27;20023;-77
2024/01/01 05:07:35;;;;;;;6.30;1.40;;;5.00;99.90;;;;;;5132189;27;20046;-77
2024/01/01 05:10:01;;;;;;;7.22;1.23;;;4.90;99.90;;;;;;5131476;27;20031;-78
2024/01/01 05:12:27;;;;;;;11.80;2.85;;;5.00;99.90;;;;;;5131765;27;20110;-77
2024/01/01 05:14:53;;;;;;;8.52;1.88;;;5.00;99.90;;;;;;5112925;27;20075;-79
2024/01/01 05:17:19;;;;;;;8.30;1.55;;;4.90;99.90;;;;;;5131935;27;20106;-78
2024/01/01 05:19:44;;;;;;;8.55;1.42;;;4.90;99.90;;;;;;5131304;27;20041;-79
2024/01/01 05:22:10;;;;;;;9.82;1.33;;;4.90;99.90;;;;;;5131757;27;20027;-78
2024/01/01 05:24:36;;;;;;;5.05;1.13;;;4.80;99.90;;;;;;5131609;27;20433;-78
2024/01/01 05:27:07;;;;;;;8.90;1.35;;;4.80;99.90;;;;;;5131089;27;20617;-78
2024/01/01 05:29:33;;;;;;;6.30;1.48;;;4.80;99.90;;;;;;5113139;27;20208;-78
2024/01/01 05:31:59;;;;;;;7.25;1.75;;;4.80;99.90;;;;;;5130851;27;20026;-77
2024/01/01 05:34:25;;;;;;;8.38;1.48;;;4.80;99.90;;;;;;5131331;27;20027;-78
2024/01/01 05:36:50;;;;;;;12.15;1.92;;;4.80;99.90;;;;;;5130976;27;20022;-79
2024/01/01 05:39:16;;;;;;;6.30;1.38;;;4.80;99.90;;;;;;5131357;28;20046;-78
2024/01/01 05:41:42;;;;;;;9.15;1.75;;;4.80;99.90;;;;;;5131072;27;20031;-78
2024/01/01 05:44:08;;;;;;;8.75;1.38;;;4.80;99.90;;;;;;5112734;28;20488;-78
2024/01/01 05:46:33;;;;;;;3.67;1.20;;;4.80;99.90;;;;;;5131269;28;20016;-78
2024/01/01 05:48:59;;;;;;;6.85;1.13;;;4.80;99.90;;;;;;5130644;28;20501;-78
2024/01/01 05:51:25;;;;;;;9.55;1.92;;;4.80;99.90;;;;;;5131072;28;20102;-78
2024/01/01 05:53:50;;;;;;;10.77;1.83;;;4.70;99.90;;;;;;5130861;28;20039;-78
2024/01/01 05:56:16;;;;;;;5.65;1.23;;;4.70;99.90;;;;;;5131593;28;20126;-78
2024/01/01 05:58:42;;;;;;;15.02;2.03;;;4.70;99.90;;;;;;5131153;28;20019;-78
2024/01/01 06:01:08;;;;;;;10.90;1.75;;;4.70;99.90;;;;;;5130873;28;20027;-78
2024/01/01 06:03:34;;;;;;;13.50;2.58;;;4.70;99.90;;;;;;5131242;28;20015;-78
2024/01/01 06:05:59;;;;;;;11.50;1.65;;;4.70;99.90;;;;;;5130749;28;20019;-78
2024/01/01 06:08:25;;;;;;;12.30;1.60;;;4.80;99.90;;;;;;5131474;28;20020;-77
2024/01/01 06:10:51;;;;;;;11.05;1.95;;;4.70;99.90;;;;;;5130705;28;20046;-78
2024/01/01 06:13:17;;;;;;;8.93;1.75;;;4.70;99.90;;;;;;5131287;28;20106;-78
2024/01/01 06:15:43;;;;;;;10.32;1.90;;;4.70;99.90;;;;;;5131407;28;20098;-78
2024/01/01 06:18:08;;;;;;;8.52;1.58;;;4.70;99.90;;;;;;5130976;28;20020;-78
2024/01/01 06:20:34;;;;;;;9.32;2.47;;;4.70;99.90;;;;;;5131440;28;20019;-78
2024/01/01 06:23:00;;;;;;;13.98;2.13;;;4.70;99.90;;;;;;5130570;28;20333;-78
2024/01/01 06:25:26;;;;;;;13.07;1.70;;;4.70;99.90;;;;;;5131317;28;20054;-78
2024/01/01 06:27:52;;;;;;;10.55;2.08;;;4.70;99.90;;;;;;5130662;28;20015;-78
2024/01/01 06:30:17;;;;;;;10.52;2.45;;;4.80;99.90;;;;;;5131041;28;20038;-78
2024/01/01 06:32:43;;;;;;;10.77;1.95;;;4.80;99.90;;;;;;5131181;28;20027;-78
2024/01/01 06:35:09;;;;;;;15.25;2.78;;;4.80;99.90;;;;;;5130569;28;20026;-78
2024/01/01 06:37:34;;;;;;;11.77;2.20;;;4.90;99.90;;;;;;5130785;28;20019;-78
2024/01/01 06:40:01;;;;;;;12.88;2.30;;;4.90;99.90;;;;;;5112125;28;20114;-78
2024/01/01 06:42:27;;;;;;;11.20;2.10;;;4.90;99.90;;;;;;5130749;28;20317;-78
2024/01/01 06:44:57;;;;;;;16.33;2.05;;;4.90;99.90;;;;;;5131001;27;20027;-79
2024/01/01 06:47:23;;;;;;;13.48;2.35;;;4.90;99.90;;;;;;5134649;27;20068;-78
2024/01/01 06:49:48;;;;;;;9.32;2.33;;;4.90;99.90;;;;;;5134025;27;20027;-79
2024/01/01 06:52:14;;;;;;;11.70;1.77;;;4.90;99.90;;;;;;5134354;27;20122;-78
2024/01/01 06:54:41;;;;;;;10.25;1.70;;;4.90;99.90;;;;;;5115619;27;20046;-78
2024/01/01 06:57:07;;;;;;;13.73;2.00;;;4.90;99.90;;;;;;5133502;27;20767;-78
2024/01/01 06:59:32;;;;;;;8.30;1.70;;;4.90;99.90;;;;;;5134495;27;20020;-78
2024/01/01 07:01:59;;;;;;;11.70;1.95;;;4.90;99.90;;;;;;5133736;27;20100;-78
2024/01/01 07:04:25;;;;;;;11.65;2.10;;;4.90;99.90;;;;;;5116215;27;20019;-78
2024/01/01 07:06:51;;;;;;;13.63;2.50;;;4.80;99.90;;;;;;5133655;27;20023;-78
2024/01/01 07:09:17;;;;;;;11.88;2.08;;;4.90;99.90;;;;;;5116003;27;20106;-78
2024/01/01 07:11:44;;;;;;;9.75;1.85;;;4.80;99.90;;;;;;5134158;27;20019;-78
2024/01/01 07:14:10;;;;;;;13.75;2.03;;;4.80;99.90;;;;;;5133486;27;20122;-78
2024/01/01 07:16:35;;;;;;;12.32;2.13;;;4.80;99.90;;;;;;5134181;27;20152;-77
2024/01/01 07:19:01;;;;;;;11.25;1.80;;;4.80;99.90;;;;;;5133798;27;20041;-78
2024/01/01 07:21:27;;;;;;;8.68;1.83;;;4.80;99.90;;;;;;5133766;27;20035;-78
2024/01/01 07:23:53;;;;;;;10.40;2.10;;;4.70;99.90;;;;;;5133655;27;20015;-79
2024/01/01 07:26:19;;;;;;;8.40;2.45;;;4.70;99.90;;;;;;5134212;27;20324;-78
2024/01/01 07:28:45;;;;;;;9.77;1.95;;;4.80;99.90;;;;;;5134486;27;20068;-78
2024/01/01 07:31:11;;;;;;;11.65;2.20;;;4.70;99.90;;;;;;5133856;27;20253;-78
2024/01/01 07:33:38;;;;;;;16.55;2.20;;;4.70;99.90;;;;;;5134148;27;20027;-78
2024/01/01 07:36:08;;;;;;;16.05;2.67;;;4.70;99.90;;;;;;5133409;27;20027;-78
2024/01/01 07:38:34;;;;;;;11.50;2.08;;;4.60;99.90;;;;;;5133815;27;20064;-78
2024/01/01 07:41:00;;;;;;;10.35;2.58;;;4.70;99.90;;;;;;5133332;27;20027;-78
2024/01/01 07:43:26;;;;;;;9.90;1.95;;;4.70;99.90;;;;;;5133903;27;20317;-78
2024/01/01 07:45:52;;;;;;;10.52;1.90;;;4.70;99.90;;;;;;5133759;27;20023;-78
2024/01/01 07:48:18;;;;;;;16.77;2.70;;;4.70;99.90;;;;;;5133357;27;20308;-78
2024/01/01 07:50:43;;;;;;;13.80;2.10;;;4.70;99.90;;;;;;5115170;27;20023;-78
2024/01/01 07:53:09;;;;;;;15.50;2.70;;;4.60;99.90;;;;;;5132722;27;20023;-78
2024/01/01 07:55:36;;;;;;;15.10;2.38;;;4.60;99.90;;;;;;5133735;27;20463;-78
2024/01/01 07:58:02;;;;;;;7.72;2.05;;;4.60;99.90;;;;;;5131535;27;20019;-78
2024/01/01 08:00:28;;;;;;;13.27;2.17;;;4.60;99.90;;;;;;5133443;27;20015;-78
2024/01/01 08:02:53;;;;;;;11.32;2.00;;;4.60;99.90;;;;;;5132640;27;20456;-79
2024/01/01 08:05:19;;;;;;;10.30;1.88;;;4.60;99.90;;;;;;5133195;27;20088;-79
2024/01/01 08:07:47;;;;;;;11.27;1.85;;;4.60;99.90;;;;;;5133161;27;20016;-79
2024/01/01 08:10:17;;;;;;;10.00;2.00;;;4.60;99.90;;;;;;5132830;27;20015;-79
2024/01/01 08:12:43;;;;;;;9.50;2.10;;;4.50;99.90;;;;;;5132815;27;20023;-79
2024/01/01 08:15:09;;;;;;;9.65;2.45;;;4.50;99.90;;;;;;5132618;27;20017;-79
2024/01/01 08:17:34;;;;;;;12.43;3.00;;;4.50;99.90;;;;;;5133410;27;20019;-79
2024/01/01 08:20:00;;;;;;;13.40;2.30;;;4.50;99.90;;;;;;5132822;27;20023;-79
2024/01/01 08:22:26;;;;;;;14.85;2.17;;;4.50;99.90;;;;;;5133145;27;20027;-79
2024/01/01 08:24:52;;;;;;;11.35;1.95;;;4.40;99.90;;;;;;5133267;27;20026;-79
2024/01/01 08:27:18;;;;;;;17.13;2.47;;;4.40;99.90;;;;;;5132328;27;20055;-78
2024/01/01 08:29:43;;;;;;;13.13;2.50;;;4.40;99.90;;;;;;5132833;27;20061;-79
2024/01/01 08:32:09;;;;;;;16.13;3.20;;;4.40;99.90;;;;;;5132305;27;20109;-78
2024/01/01 08:34:35;;;;;;;15.75;2.47;;;4.40;99.90;;;;;;5132706;27;20444;-79
2024/01/01 08:37:04;;;;;;;9.50;2.40;;;4.40;99.90;;;;;;5132132;27;20408;-79
2024/01/01 08:39:30;;;;;;;14.05;2.47;;;4.30;99.90;;;;;;5132609;27;20164;-79
2024/01/01 08:41:56;;;;;;;9.85;2.13;;;4.40;99.90;;;;;;5131966;27;20437;-80
2024/01/01 08:44:22;;;;;;;13.75;2.38;;;4.30;99.90;;;;;;5132643;27;20023;-79
2024/01/01 08:46:47;;;;;;;18.40;2.70;;;4.30;99.90;;;;;;5132244;27;20019;-79
2024/01/01 08:49:13;;;;;;;9.60;2.13;;;4.30;99.90;;;;;;5113291;27;20023;-79
2024/01/01 08:51:39;;;;;;;13.35;2.38;;;4.30;99.90;;;;;;5132452;27;20055;-79
2024/01/01 08:54:05;;;;;;;13.05;2.63;;;4.30;99.90;;;;;;5131591;27;20039;-79
2024/01/01 08:56:32;;;;;;;12.70;2.28;;;4.30;99.90;;;;;;5132478;27;20048;-79
2024/01/01 08:58:57;;;;;;;9.80;2.10;;;4.30;99.90;;;;;;5131526;27;20019;-80
2024/01/01 09:01:23;;;;;;;11.88;2.30;;;4.20;99.90;;;;;;5132037;27;20046;-79
2024/01/01 09:03:49;;;;;;;10.18;2.70;;;4.10;99.90;;;;;;5131930;27;20095;-79
2024/01/01 09:06:15;;;;;;;12.88;2.20;;;4.00;99.90;;;;;;5131762;27;20023;-79
2024/01/01 09:08:40;;;;;;;8.73;2.08;;;4.00;99.90;;;;;;5132005;27;20026;-79
2024/01/01 09:11:06;;;;;;;12.48;2.53;;;3.90;99.90;;;;;;5130952;27;20414;-79
2024/01/01 09:13:32;;;;;;;11.75;2.30;;;3.90;99.90;;;;;;5101932;28;20020;-78
2024/01/01 09:15:58;;;;;;;23.38;3.63;;;3.90;99.90;;;;;;5121232;27;20423;-79
2024/01/01 09:18:23;;;;;;;13.30;2.83;;;3.90;99.90;;;;;;5122102;27;20146;-80
2024/01/01 09:20:49;;;;;;;17.45;3.72;;;3.90;99.90;;;;;;5111135;28;20019;-79
2024/01/01 09:23:15;;;;;;;11.48;2.75;;;3.90;99.90;;;;;;5091970;28;20027;-80
2024/01/01 09:25:41;;;;;;;12.50;2.25;;;3.90;99.90;;;;;;5111235;28;20031;-79
2024/01/01 09:28:07;;;;;;;9.88;2.67;;;3.90;99.90;;;;;;5092133;28;20028;-80
2024/01/01 09:30:33;;;;;;;13.82;2.22;;;4.00;99.90;;;;;;5111387;28;20019;-79
2024/01/01 09:32:58;;;;;;;19.60;3.40;;;4.00;99.90;;;;;;5110678;28;20034;-81
2024/01/01 09:35:24;;;;;;;11.95;2.85;;;4.10;99.90;;;;;;5110877;28;20020;-79
2024/01/01 09:37:52;;;;;;;11.32;2.80;;;4.20;99.90;;;;;;5092682;28;20140;-79
2024/01/01 09:40:20;;;;;;;9.20;2.72;;;4.20;99.90;;;;;;5092111;28;20028;-80
2024/01/01 09:42:47;;;;;;;13.80;2.25;;;4.30;99.90;;;;;;5110890;28;20068;-80
2024/01/01 09:45:13;;;;;;;12.93;2.67;;;4.40;99.90;;;;;;5110548;28;20022;-78
2024/01/01 09:47:40;;;;;;;8.88;2.15;;;4.40;99.90;;;;;;5092518;28;20435;-79
2024/01/01 09:50:07;;;;;;;14.93;2.85;;;4.40;99.90;;;;;;5110271;28;20084;-79
2024/01/01 09:52:33;;;;;;;15.93;2.85;;;4.50;99.90;;;;;;5110940;28;20108;-79
2024/01/01 09:54:59;;;;;;;15.65;3.05;;;4.50;99.90;;;;;;5110530;28;20452;-81
2024/01/01 09:57:25;;;;;;;9.07;2.90;;;4.60;99.90;;;;;;5110469;28;20471;-80
2024/01/01 09:59:51;;;;;;;12.52;3.65;;;4.60;99.90;;;;;;5110365;28;20349;-79
2024/01/01 10:02:23;;;;;;;18.27;3.67;;;4.70;99.90;;;;;;5110266;28;20046;-84
2024/01/01 10:04:48;;;;;;;10.18;2.88;;;4.80;99.90;;;;;;5092715;28;20027;-84
2024/01/01 10:07:27;;;;;;;10.23;3.00;;;4.90;99.90;;;;;;5130546;27;20079;-85
2024/01/01 10:09:53;;;;;;;13.32;2.25;;;5.00;99.90;;;;;;5136942;27;20027;-85
2024/01/01 10:12:22;;;;;;;20.80;2.90;;;5.10;99.90;;;;;;5120631;27;20035;-84
2024/01/01 10:14:49;;;;;;;9.07;2.05;;;5.10;99.90;;;;;;5120657;27;20028;-84
2024/01/01 10:17:19;;;;;;;12.85;2.33;;;5.20;99.90;;;;;;5120360;28;20437;-83
2024/01/01 10:19:54;;;;;;;14.63;2.95;;;5.20;99.90;;;;;;5103394;28;20019;-84
2024/01/01 10:22:22;;;;;;;6.75;1.90;;;5.30;99.90;;;;;;5114449;28;20484;-83
2024/01/01 10:24:49;;;;;;;12.40;2.13;;;5.40;99.90;;;;;;5122942;27;20034;-83
2024/01/01 10:27:20;;;;;;;17.17;2.70;;;5.50;99.90;;;;;;5124972;27;20011;-84
2024/01/01 10:29:49;;;;;;;11.80;2.17;;;5.50;99.90;;;;;;5121914;27;20015;-84
2024/01/01 10:32:18;;;;;;;12.80;2.25;;;5.50;99.90;;;;;;5121884;27;20029;-84
2024/01/01 10:34:47;;;;;;;7.80;2.10;;;5.60;99.90;;;;;;5114587;28;20015;-84
2024/01/01 10:37:15;;;;;;;4.72;1.83;;;5.60;99.90;;;;;;5113734;28;20024;-84
2024/01/01 10:39:43;;;;;;;8.57;2.22;;;5.60;99.90;;;;;;5095398;28;20020;-84
2024/01/01 10:42:09;;;;;;;8.23;2.33;;;5.70;99.90;;;;;;5094526;28;20085;-84
2024/01/01 10:44:36;;;;;;;13.25;2.55;;;5.70;99.90;;;;;;5117187;27;20095;-84
2024/01/01 10:47:06;;;;;;;12.82;2.40;;;5.80;99.90;;;;;;5105187;27;20443;-85
2024/01/01 10:49:32;;;;;;;11.05;2.72;;;5.80;99.90;;;;;;5124665;27;20051;-82
2024/01/01 10:52:30;;;;;;;9.93;2.47;;;5.90;99.90;;;;;;5135272;27;20023;-82
2024/01/01 10:55:11;;;;;;;7.22;2.10;;;5.90;99.90;;;;;;5104933;27;20520;-84
2024/01/01 10:57:56;;;;;;;9.32;2.35;;;5.90;99.90;;;;;;5116162;27;20403;-84
2024/01/01 11:00:53;;;;;;;8.57;1.90;;;6.00;99.90;;;;;;5116187;27;20023;-83
2024/01/01 11:03:20;;;;;;;11.07;3.08;;;6.00;99.90;;;;;;5104740;27;20045;-83
2024/01/01 11:05:49;;;;;;;8.90;2.28;;;6.00;99.90;;;;;;5124582;27;20020;-84
2024/01/01 11:08:27;;;;;;;5.82;1.92;;;6.00;99.90;;;;;;5135300;27;20027;-79
2024/01/01 11:10:55;;;;;;;10.18;2.20;;;6.10;99.90;;;;;;5134734;27;20042;-77
2024/01/01 11:13:26;;;;;;;10.30;3.05;;;6.10;99.90;;;;;;5125683;27;20054;-80
2024/01/01 11:16:06;;;;;;;9.48;2.47;;;6.10;99.90;;;;;;5124960;27;20082;-80
2024/01/01 11:18:36;;;;;;;10.70;2.45;;;6.20;99.90;;;;;;5124187;27;20154;-79
2024/01/01 11:21:02;;;;;;;8.25;3.13;;;6.20;99.90;;;;;;5117532;27;20026;-81
2024/01/01 11:23:41;;;;;;;12.80;3.35;;;6.30;99.90;;;;;;5115800;28;20038;-79
2024/01/01 11:26:26;;;;;;;9.25;2.90;;;6.30;99.90;;;;;;5114496;28;20030;-80
2024/01/01 11:29:06;;;;;;;6.65;3.08;;;6.30;99.90;;;;;;5117727;28;20106;-79
2024/01/01 11:31:34;;;;;;;12.18;3.78;;;6.30;99.90;;;;;;5118398;28;20023;-80
2024/01/01 11:34:02;;;;;;;15.88;5.10;;;6.30;99.90;;;;;;5109662;27;20041;-80
2024/01/01 11:36:28;;;;;;;13.27;4.20;;;6.30;99.90;;;;;;5135661;27;20041;-80
2024/01/01 11:38:57;;;;;;;11.65;3.65;;;6.40;99.90;;;;;;5135456;27;20019;-79
2024/01/01 11:41:27;;;;;;;11.90;3.33;;;6.50;99.90;;;;;;5135269;27;20039;-80
2024/01/01 11:43:54;;;;;;;15.45;2.97;;;6.40;99.90;;;;;;5117499;27;20405;-79
2024/01/01 11:46:26;;;;;;;16.65;3.40;;;6.40;99.90;;;;;;5137313;27;20019;-80
2024/01/01 11:48:56;;;;;;;;;;;6.40;99.90;;;;;;5138215;27;20333;-82
2024/01/01 11:51:21;;;;;;;10.60;2.90;;;6.50;99.90;;;;;;5138836;27;19903;-81
2024/01/01 11:53:47;;;;;;;11.45;3.00;;;6.50;99.90;;;;;;5136985;27;20134;-82
2024/01/01 11:56:13;;;;;;;13.80;2.90;;;6.50;99.90;;;;;;5137261;27;20031;-82
2024/01/01 11:58:39;;;;;;;13.38;3.47;;;6.50;99.90;;;;;;5135230;27;20486;-81
2024/01/01 12:01:05;;;;;;;7.63;2.05;;;6.50;99.90;;;;;;5133540;27;20015;-82
2024/01/01 12:03:33;;;;;;;12.40;2.40;;;6.60;99.90;;;;;;5134463;27;20033;-81
2024/01/01 12:06:02;;;;;;;11.32;2.67;;;6.60;99.90;;;;;;5134482;27;20436;-81
2024/01/01 12:08:28;;;;;;;12.32;2.63;;;6.60;99.90;;;;;;5134393;27;20034;-80
2024/01/01 12:11:01;;;;;;;9.13;2.65;;;6.70;99.90;;;;;;5133961;27;20042;-80
2024/01/01 12:13:26;;;;;;;11.75;2.22;;;6.70;99.90;;;;;;5133311;27;20671;-80
2024/01/01 12:15:53;;;;;;;7.30;1.95;;;6.70;99.90;;;;;;5135004;27;20023;-80
2024/01/01 12:18:19;;;;;;;13.13;2.47;;;6.70;99.90;;;;;;5134292;27;20030;-80
2024/01/01 12:20:44;;;;;;;11.43;3.00;;;6.70;99.90;;;;;;5134333;27;20019;-80
2024/01/01 12:23:11;;;;;;;9.65;3.35;;;6.70;99.90;;;;;;5133556;27;20031;-81
2024/01/01 12:25:37;;;;;;;15.43;2.88;;;6.70;99.90;;;;;;5133629;27;20064;-80
2024/01/01 12:28:05;;;;;;;11.60;2.85;;;6.70;99.90;;;;;;5133136;27;20019;-80
2024/01/01 12:30:33;;;;;;;7.35;2.22;;;6.70;99.90;;;;;;5132902;27;20025;-80
2024/01/01 12:32:58;;;;;;;10.82;3.03;;;6.70;99.90;;;;;;5132871;27;20045;-79
2024/01/01 12:35:24;;;;;;;15.77;2.88;;;6.60;99.90;;;;;;5132429;27;20027;-79
2024/01/01 12:37:51;;;;;;;12.45;3.03;;;6.60;99.90;;;;;;5132640;27;20486;-79
2024/01/01 12:40:17;;;;;;;11.57;3.03;;;6.60;99.90;;;;;;5132275;27;20364;-79
2024/01/01 12:42:44;;;;;;;12.13;3.00;;;6.60;99.90;;;;;;5132196;27;20035;-79
2024/01/01 12:45:12;;;;;;;15.57;3.70;;;6.50;99.90;;;;;;5132108;27;20023;-79
2024/01/01 12:47:39;;;;;;;13.35;3.20;;;6.50;99.90;;;;;;5133277;27;20106;-79